sensor_id;sensor_type;location;lat;lon;timestamp;pressure;altitude;pressure_sealevel;temperature;humidity
73332;BME280;61560;33.718;73.040;2023-04-28T00:01:11;94722.31;;;19.15;64.64
73332;BME280;61560;33.718;73.040;2023-04-28T00:03:38;94721.09;;;19.16;64.10
73332;BME280;61560;33.718;73.040;2023-04-28T00:06:04;94721.41;;;19.18;63.98
73332;BME280;61560;33.718;73.040;2023-04-28T00:08:34;94716.75;;;19.24;62.26
73332;BME280;61560;33.718;73.040;2023-04-28T00:11:00;94714.38;;;19.32;62.53
73332;BME280;61560;33.718;73.040;2023-04-28T00:13:28;94711.31;;;19.30;62.33
73332;BME280;61560;33.718;73.040;2023-04-28T00:15:54;94720.56;;;19.36;62.77
73332;BME280;61560;33.718;73.040;2023-04-28T00:18:21;94713.47;;;19.35;62.63
73332;BME280;61560;33.718;73.040;2023-04-28T00:20:47;94699.41;;;19.29;63.04
73332;BME280;61560;33.718;73.040;2023-04-28T00:23:14;94718.84;;;19.38;63.42
73332;BME280;61560;33.718;73.040;2023-04-28T00:25:41;94707.41;;;19.45;63.05
73332;BME280;61560;33.718;73.040;2023-04-28T00:28:08;94711.09;;;19.42;64.14
73332;BME280;61560;33.718;73.040;2023-04-28T00:30:34;94718.66;;;19.42;61.91
73332;BME280;61560;33.718;73.040;2023-04-28T00:33:01;94725.00;;;19.42;62.73
73332;BME280;61560;33.718;73.040;2023-04-28T00:35:27;94734.69;;;19.47;62.73
73332;BME280;61560;33.718;73.040;2023-04-28T00:37:57;94730.66;;;19.48;62.20
73332;BME280;61560;33.718;73.040;2023-04-28T00:40:31;94730.97;;;19.50;62.02
73332;BME280;61560;33.718;73.040;2023-04-28T00:42:57;94732.50;;;19.51;61.61
73332;BME280;61560;33.718;73.040;2023-04-28T00:45:23;94724.94;;;19.51;61.38
73332;BME280;61560;33.718;73.040;2023-04-28T00:47:53;94726.78;;;19.54;61.51
73332;BME280;61560;33.718;73.040;2023-04-28T00:50:22;94729.97;;;19.62;63.17
73332;BME280;61560;33.718;73.040;2023-04-28T00:52:50;94724.53;;;19.68;63.49
73332;BME280;61560;33.718;73.040;2023-04-28T00:55:17;94713.91;;;19.66;63.54
73332;BME280;61560;33.718;73.040;2023-04-28T00:57:44;94720.16;;;19.76;64.38
73332;BME280;61560;33.718;73.040;2023-04-28T01:00:13;94719.66;;;19.77;63.64
73332;BME280;61560;33.718;73.040;2023-04-28T01:02:41;94714.53;;;19.85;63.93
73332;BME280;61560;33.718;73.040;2023-04-28T01:05:08;94713.88;;;19.90;63.12
73332;BME280;61560;33.718;73.040;2023-04-28T01:07:36;94718.59;;;19.98;62.56
73332;BME280;61560;33.718;73.040;2023-04-28T01:10:04;94724.16;;;19.98;62.08
73332;BME280;61560;33.718;73.040;2023-04-28T01:12:33;94727.63;;;20.08;62.13
73332;BME280;61560;33.718;73.040;2023-04-28T01:15:00;94739.91;;;20.16;63.15
73332;BME280;61560;33.718;73.040;2023-04-28T01:17:27;94744.38;;;20.22;64.45
73332;BME280;61560;33.718;73.040;2023-04-28T01:19:55;94743.13;;;20.23;64.41
73332;BME280;61560;33.718;73.040;2023-04-28T01:22:23;94742.44;;;20.28;65.65
73332;BME280;61560;33.718;73.040;2023-04-28T01:24:49;94733.16;;;20.31;66.07
73332;BME280;61560;33.718;73.040;2023-04-28T01:27:15;94731.13;;;20.32;65.72
73332;BME280;61560;33.718;73.040;2023-04-28T01:29:42;94737.97;;;20.31;65.03
73332;BME280;61560;33.718;73.040;2023-04-28T01:32:09;94741.38;;;20.26;65.88
73332;BME280;61560;33.718;73.040;2023-04-28T01:34:35;94748.22;;;20.25;65.68
73332;BME280;61560;33.718;73.040;2023-04-28T01:37:05;94747.44;;;20.24;66.18
73332;BME280;61560;33.718;73.040;2023-04-28T01:39:31;94747.44;;;20.24;66.59
73332;BME280;61560;33.718;73.040;2023-04-28T01:41:59;94751.00;;;20.25;67.10
73332;BME280;61560;33.718;73.040;2023-04-28T01:44:27;94761.81;;;20.23;67.94
73332;BME280;61560;33.718;73.040;2023-04-28T01:46:54;94754.72;;;20.22;67.68
73332;BME280;61560;33.718;73.040;2023-04-28T01:49:21;94747.91;;;20.23;67.52
73332;BME280;61560;33.718;73.040;2023-04-28T01:51:47;94732.47;;;20.22;66.74
73332;BME280;61560;33.718;73.040;2023-04-28T01:54:14;94722.22;;;20.28;66.75
73332;BME280;61560;33.718;73.040;2023-04-28T01:56:40;94725.47;;;20.26;66.18
73332;BME280;61560;33.718;73.040;2023-04-28T01:59:07;94724.53;;;20.29;65.24
73332;BME280;61560;33.718;73.040;2023-04-28T02:01:34;94725.69;;;20.37;64.56
73332;BME280;61560;33.718;73.040;2023-04-28T02:04:00;94733.66;;;20.45;63.71
73332;BME280;61560;33.718;73.040;2023-04-28T02:06:28;94735.28;;;20.51;63.25
73332;BME280;61560;33.718;73.040;2023-04-28T02:08:56;94735.50;;;20.62;63.43
73332;BME280;61560;33.718;73.040;2023-04-28T02:11:23;94745.78;;;20.71;63.47
73332;BME280;61560;33.718;73.040;2023-04-28T02:13:54;94743.84;;;20.77;63.85
73332;BME280;61560;33.718;73.040;2023-04-28T02:16:21;94752.56;;;20.84;64.43
73332;BME280;61560;33.718;73.040;2023-04-28T02:18:49;94759.84;;;20.96;64.37
73332;BME280;61560;33.718;73.040;2023-04-28T02:21:16;94763.53;;;21.02;65.89
73332;BME280;61560;33.718;73.040;2023-04-28T02:23:44;94763.22;;;21.00;65.51
73332;BME280;61560;33.718;73.040;2023-04-28T02:26:10;94779.56;;;21.07;66.05
73332;BME280;61560;33.718;73.040;2023-04-28T02:28:37;94782.06;;;21.05;66.45
73332;BME280;61560;33.718;73.040;2023-04-28T02:31:09;94792.16;;;21.03;66.44
73332;BME280;61560;33.718;73.040;2023-04-28T02:33:37;94783.97;;;20.99;65.99
73332;BME280;61560;33.718;73.040;2023-04-28T02:36:04;94775.72;;;21.05;65.36
73332;BME280;61560;33.718;73.040;2023-04-28T02:38:32;94774.28;;;21.09;65.42
73332;BME280;61560;33.718;73.040;2023-04-28T02:41:03;94776.50;;;21.20;65.28
73332;BME280;61560;33.718;73.040;2023-04-28T02:43:32;94782.91;;;21.41;64.85
73332;BME280;61560;33.718;73.040;2023-04-28T02:45:59;94792.50;;;21.74;64.68
73332;BME280;61560;33.718;73.040;2023-04-28T02:48:26;94784.66;;;22.33;63.10
73332;BME280;61560;33.718;73.040;2023-04-28T02:50:52;94793.66;;;22.89;60.13
73332;BME280;61560;33.718;73.040;2023-04-28T02:53:21;94797.53;;;23.22;58.55
73332;BME280;61560;33.718;73.040;2023-04-28T02:55:48;94810.75;;;23.22;58.12
73332;BME280;61560;33.718;73.040;2023-04-28T02:58:15;94810.38;;;23.09;57.65
73332;BME280;61560;33.718;73.040;2023-04-28T03:00:43;94808.47;;;22.95;57.72
73332;BME280;61560;33.718;73.040;2023-04-28T03:03:09;94809.81;;;22.79;58.02
73332;BME280;61560;33.718;73.040;2023-04-28T03:05:36;94815.00;;;22.66;58.47
73332;BME280;61560;33.718;73.040;2023-04-28T03:08:03;94825.75;;;22.53;59.43
73332;BME280;61560;33.718;73.040;2023-04-28T03:10:30;94821.72;;;22.34;60.04
73332;BME280;61560;33.718;73.040;2023-04-28T03:12:56;94834.00;;;22.22;60.42
73332;BME280;61560;33.718;73.040;2023-04-28T03:15:22;94842.09;;;22.20;60.82
73332;BME280;61560;33.718;73.040;2023-04-28T03:17:50;94847.25;;;22.27;60.96
73332;BME280;61560;33.718;73.040;2023-04-28T03:20:17;94848.22;;;22.24;60.92
73332;BME280;61560;33.718;73.040;2023-04-28T03:22:44;94848.66;;;22.17;60.85
73332;BME280;61560;33.718;73.040;2023-04-28T03:25:11;94865.31;;;22.11;61.04
73332;BME280;61560;33.718;73.040;2023-04-28T03:27:47;94879.69;;;22.04;61.46
73332;BME280;61560;33.718;73.040;2023-04-28T03:30:14;94886.69;;;21.99;61.88
73332;BME280;61560;33.718;73.040;2023-04-28T03:32:41;94899.94;;;22.05;61.76
73332;BME280;61560;33.718;73.040;2023-04-28T03:35:11;94906.59;;;22.07;61.60
73332;BME280;61560;33.718;73.040;2023-04-28T03:37:39;94902.34;;;22.12;61.30
73332;BME280;61560;33.718;73.040;2023-04-28T03:40:06;94905.41;;;22.14;60.64
73332;BME280;61560;33.718;73.040;2023-04-28T03:42:51;94908.28;;;22.19;60.77
73332;BME280;61560;33.718;73.040;2023-04-28T03:45:25;94907.09;;;22.26;60.69
73332;BME280;61560;33.718;73.040;2023-04-28T03:47:52;94912.34;;;22.38;59.71
73332;BME280;61560;33.718;73.040;2023-04-28T03:50:18;94909.50;;;22.93;58.05
73332;BME280;61560;33.718;73.040;2023-04-28T03:52:46;94905.38;;;23.91;55.27
73332;BME280;61560;33.718;73.040;2023-04-28T03:55:13;94910.50;;;24.72;53.56
73332;BME280;61560;33.718;73.040;2023-04-28T03:57:40;94926.41;;;24.91;51.88
73332;BME280;61560;33.718;73.040;2023-04-28T04:00:07;94933.19;;;24.74;52.95
73332;BME280;61560;33.718;73.040;2023-04-28T04:02:41;94934.88;;;24.55;53.47
73332;BME280;61560;33.718;73.040;2023-04-28T04:05:07;94935.22;;;24.31;54.65
73332;BME280;61560;33.718;73.040;2023-04-28T04:07:34;94946.66;;;24.70;53.42
73332;BME280;61560;33.718;73.040;2023-04-28T04:10:01;94939.38;;;25.59;50.66
73332;BME280;61560;33.718;73.040;2023-04-28T04:12:28;94947.88;;;26.14;48.56
73332;BME280;61560;33.718;73.040;2023-04-28T04:14:55;94963.16;;;26.02;48.61
73332;BME280;61560;33.718;73.040;2023-04-28T04:17:21;94970.28;;;25.75;49.29
73332;BME280;61560;33.718;73.040;2023-04-28T04:19:49;94973.78;;;25.48;48.99
73332;BME280;61560;33.718;73.040;2023-04-28T04:22:15;94982.38;;;25.28;49.61
73332;BME280;61560;33.718;73.040;2023-04-28T04:24:42;94973.09;;;25.05;50.28
73332;BME280;61560;33.718;73.040;2023-04-28T04:27:09;94976.78;;;24.75;50.90
73332;BME280;61560;33.718;73.040;2023-04-28T04:29:38;94976.25;;;24.34;51.82
73332;BME280;61560;33.718;73.040;2023-04-28T04:32:11;94992.66;;;23.95;53.98
73332;BME280;61560;33.718;73.040;2023-04-28T04:34:39;94992.94;;;23.66;54.46
73332;BME280;61560;33.718;73.040;2023-04-28T04:37:06;95012.25;;;23.44;55.80
73332;BME280;61560;33.718;73.040;2023-04-28T04:39:37;95018.81;;;23.21;57.53
73332;BME280;61560;33.718;73.040;2023-04-28T04:42:03;95022.47;;;23.07;58.71
73332;BME280;61560;33.718;73.040;2023-04-28T04:44:50;95010.28;;;22.90;59.37
73332;BME280;61560;33.718;73.040;2023-04-28T04:47:27;95013.34;;;22.71;60.10
73332;BME280;61560;33.718;73.040;2023-04-28T04:49:53;95008.19;;;22.50;61.70
73332;BME280;61560;33.718;73.040;2023-04-28T04:52:20;95008.41;;;22.32;62.48
73332;BME280;61560;33.718;73.040;2023-04-28T04:54:47;95014.59;;;22.21;62.86
73332;BME280;61560;33.718;73.040;2023-04-28T04:57:14;95029.81;;;22.20;64.55
73332;BME280;61560;33.718;73.040;2023-04-28T05:00:06;95033.38;;;22.21;65.64
73332;BME280;61560;33.718;73.040;2023-04-28T05:02:33;95019.53;;;22.12;66.71
73332;BME280;61560;33.718;73.040;2023-04-28T05:05:01;95042.13;;;22.14;66.71
73332;BME280;61560;33.718;73.040;2023-04-28T05:07:28;95053.47;;;22.10;66.83
73332;BME280;61560;33.718;73.040;2023-04-28T05:09:55;95061.28;;;22.06;67.35
73332;BME280;61560;33.718;73.040;2023-04-28T05:12:22;95086.38;;;22.06;67.63
73332;BME280;61560;33.718;73.040;2023-04-28T05:14:49;95097.25;;;22.04;68.01
73332;BME280;61560;33.718;73.040;2023-04-28T05:17:19;95093.88;;;22.00;68.02
73332;BME280;61560;33.718;73.040;2023-04-28T05:19:46;95072.59;;;21.88;68.22
73332;BME280;61560;33.718;73.040;2023-04-28T05:22:16;95055.38;;;21.75;68.08
73332;BME280;61560;33.718;73.040;2023-04-28T05:24:43;95054.38;;;21.63;68.79
73332;BME280;61560;33.718;73.040;2023-04-28T05:27:10;95064.34;;;21.41;68.62
73332;BME280;61560;33.718;73.040;2023-04-28T05:29:37;95065.91;;;21.18;68.31
73332;BME280;61560;33.718;73.040;2023-04-28T05:32:03;95077.28;;;21.05;68.71
73332;BME280;61560;33.718;73.040;2023-04-28T05:34:30;95081.22;;;20.90;69.23
73332;BME280;61560;33.718;73.040;2023-04-28T05:36:58;95090.88;;;20.80;70.17
73332;BME280;61560;33.718;73.040;2023-04-28T05:39:34;95079.13;;;20.76;70.26
73332;BME280;61560;33.718;73.040;2023-04-28T05:42:03;95072.19;;;20.71;70.28
73332;BME280;61560;33.718;73.040;2023-04-28T05:44:30;95074.06;;;20.65;71.28
73332;BME280;61560;33.718;73.040;2023-04-28T05:46:58;95078.13;;;20.64;71.77
73332;BME280;61560;33.718;73.040;2023-04-28T05:49:26;95083.09;;;20.60;72.14
73332;BME280;61560;33.718;73.040;2023-04-28T05:51:54;95095.31;;;20.54;71.80
73332;BME280;61560;33.718;73.040;2023-04-28T05:54:20;95101.66;;;20.54;72.53
73332;BME280;61560;33.718;73.040;2023-04-28T05:56:50;95096.22;;;20.60;71.70
73332;BME280;61560;33.718;73.040;2023-04-28T05:59:17;95069.94;;;20.61;71.92
73332;BME280;61560;33.718;73.040;2023-04-28T06:01:45;95078.91;;;20.65;71.60
73332;BME280;61560;33.718;73.040;2023-04-28T06:04:11;95092.34;;;20.66;72.06
73332;BME280;61560;33.718;73.040;2023-04-28T06:06:38;95101.09;;;20.74;73.00
73332;BME280;61560;33.718;73.040;2023-04-28T06:09:05;95098.75;;;20.81;73.03
73332;BME280;61560;33.718;73.040;2023-04-28T06:11:32;95101.38;;;20.85;73.01
73332;BME280;61560;33.718;73.040;2023-04-28T06:13:59;95087.66;;;20.72;70.94
73332;BME280;61560;33.718;73.040;2023-04-28T06:16:25;95083.53;;;20.59;71.91
73332;BME280;61560;33.718;73.040;2023-04-28T06:18:52;95082.50;;;20.56;73.28
73332;BME280;61560;33.718;73.040;2023-04-28T06:21:19;95075.06;;;20.53;75.58
73332;BME280;61560;33.718;73.040;2023-04-28T06:23:46;95077.22;;;20.58;75.58
73332;BME280;61560;33.718;73.040;2023-04-28T06:26:16;95073.97;;;20.60;76.51
73332;BME280;61560;33.718;73.040;2023-04-28T06:28:42;95055.84;;;20.64;73.99
73332;BME280;61560;33.718;73.040;2023-04-28T06:31:09;95038.78;;;20.71;73.29
73332;BME280;61560;33.718;73.040;2023-04-28T06:33:36;95045.50;;;20.88;73.19
73332;BME280;61560;33.718;73.040;2023-04-28T06:36:02;95044.47;;;21.09;73.82
73332;BME280;61560;33.718;73.040;2023-04-28T06:38:29;95046.72;;;21.35;69.99
73332;BME280;61560;33.718;73.040;2023-04-28T06:40:56;95043.94;;;21.35;70.32
73332;BME280;61560;33.718;73.040;2023-04-28T06:43:23;95043.31;;;21.54;69.96
73332;BME280;61560;33.718;73.040;2023-04-28T06:46:10;95052.47;;;21.55;69.52
73332;BME280;61560;33.718;73.040;2023-04-28T06:48:36;95047.84;;;21.66;68.41
73332;BME280;61560;33.718;73.040;2023-04-28T06:51:03;95047.19;;;21.71;67.28
73332;BME280;61560;33.718;73.040;2023-04-28T06:53:34;95029.59;;;21.80;66.79
73332;BME280;61560;33.718;73.040;2023-04-28T06:56:00;95030.03;;;22.02;66.23
73332;BME280;61560;33.718;73.040;2023-04-28T06:58:27;95022.84;;;22.45;65.52
73332;BME280;61560;33.718;73.040;2023-04-28T07:00:54;95020.41;;;22.87;62.61
73332;BME280;61560;33.718;73.040;2023-04-28T07:03:21;95011.75;;;23.05;60.91
73332;BME280;61560;33.718;73.040;2023-04-28T07:05:50;95002.91;;;23.07;60.64
73332;BME280;61560;33.718;73.040;2023-04-28T07:08:17;94990.06;;;22.95;60.95
73332;BME280;61560;33.718;73.040;2023-04-28T07:10:44;94975.59;;;22.76;62.14
73332;BME280;61560;33.718;73.040;2023-04-28T07:13:12;94979.00;;;22.65;62.31
73332;BME280;61560;33.718;73.040;2023-04-28T07:15:39;95000.50;;;22.45;62.79
73332;BME280;61560;33.718;73.040;2023-04-28T07:18:06;95016.47;;;22.44;64.49
73332;BME280;61560;33.718;73.040;2023-04-28T07:20:32;95022.91;;;22.50;65.00
73332;BME280;61560;33.718;73.040;2023-04-28T07:22:59;95016.09;;;22.51;64.41
73332;BME280;61560;33.718;73.040;2023-04-28T07:25:25;95007.59;;;22.60;63.87
73332;BME280;61560;33.718;73.040;2023-04-28T07:27:52;95001.97;;;22.75;64.81
73332;BME280;61560;33.718;73.040;2023-04-28T07:30:19;94991.72;;;23.07;63.60
73332;BME280;61560;33.718;73.040;2023-04-28T07:32:47;94980.75;;;23.43;61.83
73332;BME280;61560;33.718;73.040;2023-04-28T07:35:15;94978.22;;;23.71;59.47
73332;BME280;61560;33.718;73.040;2023-04-28T07:37:42;94975.13;;;23.95;57.97
73332;BME280;61560;33.718;73.040;2023-04-28T07:40:09;94978.09;;;24.11;56.45
73332;BME280;61560;33.718;73.040;2023-04-28T07:42:36;94964.44;;;24.24;56.52
73332;BME280;61560;33.718;73.040;2023-04-28T07:45:04;94955.50;;;24.20;57.25
73332;BME280;61560;33.718;73.040;2023-04-28T07:47:31;94962.25;;;24.34;56.81
73332;BME280;61560;33.718;73.040;2023-04-28T07:49:58;94957.72;;;24.48;56.71
73332;BME280;61560;33.718;73.040;2023-04-28T07:52:29;94958.06;;;24.61;57.26
73332;BME280;61560;33.718;73.040;2023-04-28T07:54:57;94966.59;;;24.77;55.31
73332;BME280;61560;33.718;73.040;2023-04-28T07:57:24;94956.66;;;24.82;52.61
73332;BME280;61560;33.718;73.040;2023-04-28T07:59:51;94955.94;;;24.87;53.42
73332;BME280;61560;33.718;73.040;2023-04-28T08:02:18;94955.94;;;24.87;54.13
73332;BME280;61560;33.718;73.040;2023-04-28T08:04:45;94939.44;;;25.00;54.25
73332;BME280;61560;33.718;73.040;2023-04-28T08:07:14;94937.19;;;25.15;53.59
73332;BME280;61560;33.718;73.040;2023-04-28T08:09:41;94938.28;;;25.34;53.30
73332;BME280;61560;33.718;73.040;2023-04-28T08:12:13;94928.91;;;25.48;52.18
73332;BME280;61560;33.718;73.040;2023-04-28T08:14:39;94937.09;;;25.57;50.62
73332;BME280;61560;33.718;73.040;2023-04-28T08:17:06;94932.22;;;25.58;50.11
73332;BME280;61560;33.718;73.040;2023-04-28T08:19:33;94924.84;;;25.60;49.69
73332;BME280;61560;33.718;73.040;2023-04-28T08:22:00;94922.53;;;25.70;49.15
73332;BME280;61560;33.718;73.040;2023-04-28T08:24:31;94921.78;;;25.75;48.97
73332;BME280;61560;33.718;73.040;2023-04-28T08:27:02;94925.63;;;25.83;49.15
73332;BME280;61560;33.718;73.040;2023-04-28T08:29:31;94909.53;;;25.94;47.36
73332;BME280;61560;33.718;73.040;2023-04-28T08:31:58;94911.84;;;25.90;48.01
73332;BME280;61560;33.718;73.040;2023-04-28T08:34:26;94900.09;;;25.86;48.03
73332;BME280;61560;33.718;73.040;2023-04-28T08:36:55;94898.31;;;25.89;47.95
73332;BME280;61560;33.718;73.040;2023-04-28T08:39:24;94891.19;;;25.93;46.66
73332;BME280;61560;33.718;73.040;2023-04-28T08:41:52;94876.38;;;25.93;44.23
73332;BME280;61560;33.718;73.040;2023-04-28T08:44:19;94874.59;;;25.90;44.39
73332;BME280;61560;33.718;73.040;2023-04-28T08:46:48;94868.47;;;25.91;43.83
73332;BME280;61560;33.718;73.040;2023-04-28T08:49:17;94867.94;;;25.98;44.17
73332;BME280;61560;33.718;73.040;2023-04-28T08:51:45;94857.00;;;26.12;43.48
73332;BME280;61560;33.718;73.040;2023-04-28T08:54:16;94853.41;;;26.11;43.16
73332;BME280;61560;33.718;73.040;2023-04-28T08:56:45;94856.75;;;26.10;42.31
73332;BME280;61560;33.718;73.040;2023-04-28T08:59:13;94843.22;;;26.08;40.30
73332;BME280;61560;33.718;73.040;2023-04-28T09:01:40;94841.16;;;26.14;41.42
73332;BME280;61560;33.718;73.040;2023-04-28T09:04:07;94833.75;;;26.22;41.07
73332;BME280;61560;33.718;73.040;2023-04-28T09:06:36;94826.34;;;26.25;39.93
73332;BME280;61560;33.718;73.040;2023-04-28T09:09:23;94820.44;;;26.28;40.70
73332;BME280;61560;33.718;73.040;2023-04-28T09:14:17;94807.41;;;26.36;39.78
73332;BME280;61560;33.718;73.040;2023-04-28T09:16:45;94804.06;;;26.38;38.74
73332;BME280;61560;33.718;73.040;2023-04-28T09:19:14;94803.09;;;26.35;38.05
73332;BME280;61560;33.718;73.040;2023-04-28T09:21:53;94796.66;;;26.40;38.01
73332;BME280;61560;33.718;73.040;2023-04-28T09:24:37;94798.94;;;26.47;38.89
73332;BME280;61560;33.718;73.040;2023-04-28T09:27:09;94786.66;;;26.50;38.92
73332;BME280;61560;33.718;73.040;2023-04-28T09:29:51;94780.75;;;26.59;36.63
73332;BME280;61560;33.718;73.040;2023-04-28T09:32:22;94768.22;;;26.60;37.38
73332;BME280;61560;33.718;73.040;2023-04-28T09:34:53;94762.84;;;26.68;37.54
73332;BME280;61560;33.718;73.040;2023-04-28T09:37:24;94756.69;;;26.75;35.98
73332;BME280;61560;33.718;73.040;2023-04-28T09:39:53;94752.56;;;26.82;36.62
73332;BME280;61560;33.718;73.040;2023-04-28T09:42:40;94749.69;;;26.93;37.54
73332;BME280;61560;33.718;73.040;2023-04-28T09:45:09;94744.81;;;26.93;36.53
73332;BME280;61560;33.718;73.040;2023-04-28T09:47:38;94737.91;;;26.94;36.08
73332;BME280;61560;33.718;73.040;2023-04-28T09:50:07;94737.63;;;26.98;36.77
73332;BME280;61560;33.718;73.040;2023-04-28T09:52:42;94732.81;;;26.93;35.31
73332;BME280;61560;33.718;73.040;2023-04-28T09:55:11;94729.72;;;26.96;34.72
73332;BME280;61560;33.718;73.040;2023-04-28T09:57:38;94726.84;;;27.02;35.67
73332;BME280;61560;33.718;73.040;2023-04-28T10:00:06;94723.53;;;27.03;35.16
73332;BME280;61560;33.718;73.040;2023-04-28T10:02:35;94727.59;;;27.08;35.47
73332;BME280;61560;33.718;73.040;2023-04-28T10:05:02;94724.03;;;27.07;35.78
73332;BME280;61560;33.718;73.040;2023-04-28T10:07:33;94722.00;;;27.02;36.83
73332;BME280;61560;33.718;73.040;2023-04-28T10:10:01;94710.84;;;26.91;37.40
73332;BME280;61560;33.718;73.040;2023-04-28T10:12:30;94712.66;;;26.89;37.71
73332;BME280;61560;33.718;73.040;2023-04-28T10:14:58;94699.88;;;26.88;36.34
73332;BME280;61560;33.718;73.040;2023-04-28T10:17:25;94698.13;;;26.85;36.80
73332;BME280;61560;33.718;73.040;2023-04-28T10:19:54;94679.25;;;26.80;36.69
73332;BME280;61560;33.718;73.040;2023-04-28T10:22:41;94688.69;;;26.82;37.26
73332;BME280;61560;33.718;73.040;2023-04-28T10:25:22;94680.44;;;26.90;37.15
73332;BME280;61560;33.718;73.040;2023-04-28T10:27:51;94668.66;;;26.91;36.36
73332;BME280;61560;33.718;73.040;2023-04-28T10:30:22;94670.97;;;26.93;36.12
73332;BME280;61560;33.718;73.040;2023-04-28T10:38:16;94653.81;;;26.96;36.74
73332;BME280;61560;33.718;73.040;2023-04-28T10:56:13;94649.53;;;26.90;34.91
73332;BME280;61560;33.718;73.040;2023-04-28T10:58:43;94638.75;;;26.94;35.34
73332;BME280;61560;33.718;73.040;2023-04-28T11:01:28;94631.38;;;26.91;34.11
73332;BME280;61560;33.718;73.040;2023-04-28T11:06:35;94628.59;;;26.85;34.11
73332;BME280;61560;33.718;73.040;2023-04-28T11:16:56;94611.47;;;26.89;34.30
73332;BME280;61560;33.718;73.040;2023-04-28T11:19:31;94598.63;;;26.93;35.71
73332;BME280;61560;33.718;73.040;2023-04-28T11:21:59;94599.41;;;26.94;35.71
73332;BME280;61560;33.718;73.040;2023-04-28T11:24:30;94590.66;;;26.97;34.98
73332;BME280;61560;33.718;73.040;2023-04-28T11:26:58;94590.66;;;26.97;34.92
73332;BME280;61560;33.718;73.040;2023-04-28T11:29:38;94584.78;;;27.01;34.86
73332;BME280;61560;33.718;73.040;2023-04-28T11:32:07;94579.91;;;27.01;35.26
73332;BME280;61560;33.718;73.040;2023-04-28T11:34:35;94585.75;;;27.03;35.19
73332;BME280;61560;33.718;73.040;2023-04-28T11:37:02;94576.50;;;27.08;35.26
73332;BME280;61560;33.718;73.040;2023-04-28T11:39:32;94578.56;;;27.08;35.44
73332;BME280;61560;33.718;73.040;2023-04-28T11:42:08;94574.25;;;27.07;35.88
73332;BME280;61560;33.718;73.040;2023-04-28T11:44:38;94572.19;;;27.07;35.65
73332;BME280;61560;33.718;73.040;2023-04-28T11:47:06;94565.28;;;27.08;36.22
73332;BME280;61560;33.718;73.040;2023-04-28T11:49:43;94557.91;;;27.05;37.01
73332;BME280;61560;33.718;73.040;2023-04-28T11:52:11;94558.16;;;27.02;36.10
73332;BME280;61560;33.718;73.040;2023-04-28T11:54:38;94551.03;;;27.01;36.18
73332;BME280;61560;33.718;73.040;2023-04-28T11:57:16;94548.22;;;27.01;36.72
73332;BME280;61560;33.718;73.040;2023-04-28T11:59:43;94542.59;;;27.01;36.62
73332;BME280;61560;33.718;73.040;2023-04-28T12:02:10;94546.69;;;27.00;37.26
73332;BME280;61560;33.718;73.040;2023-04-28T12:04:42;94553.09;;;27.00;38.17
73332;BME280;61560;33.718;73.040;2023-04-28T12:07:14;94548.50;;;26.97;38.10
73332;BME280;61560;33.718;73.040;2023-04-28T12:09:43;94546.75;;;26.94;38.75
73332;BME280;61560;33.718;73.040;2023-04-28T12:12:15;94546.53;;;26.92;39.85
73332;BME280;61560;33.718;73.040;2023-04-28T12:17:23;94543.31;;;26.83;39.79
73332;BME280;61560;33.718;73.040;2023-04-28T12:19:50;94543.31;;;26.83;39.74
73332;BME280;61560;33.718;73.040;2023-04-28T12:22:16;94538.47;;;26.77;40.75
73332;BME280;61560;33.718;73.040;2023-04-28T12:24:43;94538.03;;;26.68;40.53
73332;BME280;61560;33.718;73.040;2023-04-28T12:27:18;94538.06;;;26.62;41.14
73332;BME280;61560;33.718;73.040;2023-04-28T12:29:51;94530.00;;;26.53;41.31
73332;BME280;61560;33.718;73.040;2023-04-28T12:32:17;94533.13;;;26.44;41.73
73332;BME280;61560;33.718;73.040;2023-04-28T12:34:45;94537.78;;;26.36;41.99
73332;BME280;61560;33.718;73.040;2023-04-28T12:37:12;94527.13;;;26.29;42.46
73332;BME280;61560;33.718;73.040;2023-04-28T12:39:40;94523.06;;;26.25;42.84
73332;BME280;61560;33.718;73.040;2023-04-28T12:42:07;94522.13;;;26.17;43.45
73332;BME280;61560;33.718;73.040;2023-04-28T12:44:37;94526.25;;;26.10;44.44
73332;BME280;61560;33.718;73.040;2023-04-28T12:47:06;94512.25;;;25.99;44.77
73332;BME280;61560;33.718;73.040;2023-04-28T12:49:34;94513.31;;;25.90;45.30
73332;BME280;61560;33.718;73.040;2023-04-28T12:52:02;94514.41;;;25.82;45.96
73332;BME280;61560;33.718;73.040;2023-04-28T12:54:29;94511.13;;;25.72;46.11
73332;BME280;61560;33.718;73.040;2023-04-28T12:56:58;94510.94;;;25.65;46.76
73332;BME280;61560;33.718;73.040;2023-04-28T12:59:24;94509.44;;;25.58;46.73
73332;BME280;61560;33.718;73.040;2023-04-28T13:01:53;94499.50;;;25.52;47.74
73332;BME280;61560;33.718;73.040;2023-04-28T13:04:20;94494.97;;;25.43;48.46
73332;BME280;61560;33.718;73.040;2023-04-28T13:06:47;94489.34;;;25.38;49.63
73332;BME280;61560;33.718;73.040;2023-04-28T13:09:14;94483.78;;;25.32;50.40
73332;BME280;61560;33.718;73.040;2023-04-28T13:11:42;94492.72;;;25.25;50.97
73332;BME280;61560;33.718;73.040;2023-04-28T13:14:08;94491.22;;;25.18;51.16
73332;BME280;61560;33.718;73.040;2023-04-28T13:16:35;94498.13;;;25.12;51.74
73332;BME280;61560;33.718;73.040;2023-04-28T13:19:03;94492.28;;;25.04;53.25
73332;BME280;61560;33.718;73.040;2023-04-28T13:21:34;94490.53;;;24.96;54.34
73332;BME280;61560;33.718;73.040;2023-04-28T13:24:00;94491.84;;;24.89;54.15
73332;BME280;61560;33.718;73.040;2023-04-28T13:26:27;94491.84;;;24.84;54.20
73332;BME280;61560;33.718;73.040;2023-04-28T13:28:53;94494.41;;;24.76;54.47
73332;BME280;61560;33.718;73.040;2023-04-28T13:31:20;94491.09;;;24.72;54.68
73332;BME280;61560;33.718;73.040;2023-04-28T13:33:46;94485.75;;;24.63;55.05